sensor_id;sensor_type;location;lat;lon;timestamp;P1;durP1;ratioP1;P2;durP2;ratioP2
67880;SDS011;54680;52.486;-1.890;2024-02-21T15:20:38;1.15;;;0.70;;
67880;SDS011;54680;52.486;-1.890;2024-02-21T15:23:07;1.55;;;0.85;;
67880;SDS011;54680;52.486;-1.890;2024-02-21T15:25:39;0.60;;;0.60;;
67880;SDS011;54680;52.486;-1.890;2024-02-21T15:28:04;0.90;;;0.90;;
67880;SDS011;54680;52.486;-1.890;2024-02-21T15:30:38;50.38;;;2.88;;
67880;SDS011;54680;52.486;-1.890;2024-02-21T15:33:05;1.17;;;0.90;;
67880;SDS011;54680;52.486;-1.890;2024-02-21T15:35:47;1.38;;;0.80;;
67880;SDS011;54680;52.486;-1.890;2024-02-21T15:38:29;1.00;;;0.70;;
67880;SDS011;54680;52.486;-1.890;2024-02-21T15:40:57;0.80;;;0.60;;
67880;SDS011;54680;52.486;-1.890;2024-02-21T15:43:25;0.95;;;0.80;;
67880;SDS011;54680;52.486;-1.890;2024-02-21T15:45:54;0.75;;;0.75;;
67880;SDS011;54680;52.486;-1.890;2024-02-21T15:48:20;1.10;;;1.00;;
67880;SDS011;54680;52.486;-1.890;2024-02-21T15:50:49;10.95;;;1.55;;
67880;SDS011;54680;52.486;-1.890;2024-02-21T15:56:35;1.55;;;1.45;;
67880;SDS011;54680;52.486;-1.890;2024-02-21T15:59:25;1.30;;;1.08;;
67880;SDS011;54680;52.486;-1.890;2024-02-21T16:01:52;1.10;;;1.02;;
67880;SDS011;54680;52.486;-1.890;2024-02-21T16:04:30;0.95;;;0.95;;
67880;SDS011;54680;52.486;-1.890;2024-02-21T16:07:02;1.40;;;1.20;;
67880;SDS011;54680;52.486;-1.890;2024-02-21T16:09:29;1.50;;;1.10;;
67880;SDS011;54680;52.486;-1.890;2024-02-21T16:11:56;3.33;;;1.30;;
67880;SDS011;54680;52.486;-1.890;2024-02-21T16:14:50;2.85;;;1.17;;
67880;SDS011;54680;52.486;-1.890;2024-02-21T16:17:21;1.35;;;0.93;;
67880;SDS011;54680;52.486;-1.890;2024-02-21T16:19:49;2.92;;;1.40;;
67880;SDS011;54680;52.486;-1.890;2024-02-21T16:22:27;2.70;;;1.10;;
67880;SDS011;54680;52.486;-1.890;2024-02-21T16:24:55;3.53;;;1.42;;
67880;SDS011;54680;52.486;-1.890;2024-02-21T16:27:21;1.92;;;1.08;;
67880;SDS011;54680;52.486;-1.890;2024-02-21T16:29:47;1.30;;;1.20;;
67880;SDS011;54680;52.486;-1.890;2024-02-21T16:32:14;2.60;;;1.10;;
67880;SDS011;54680;52.486;-1.890;2024-02-21T16:34:53;2.55;;;1.35;;
67880;SDS011;54680;52.486;-1.890;2024-02-21T16:37:20;3.03;;;0.95;;
67880;SDS011;54680;52.486;-1.890;2024-02-21T16:39:46;2.05;;;1.25;;
67880;SDS011;54680;52.486;-1.890;2024-02-21T16:42:25;3.13;;;1.20;;
67880;SDS011;54680;52.486;-1.890;2024-02-21T16:47:46;5.80;;;1.60;;
67880;SDS011;54680;52.486;-1.890;2024-02-21T16:53:05;3.72;;;1.50;;
67880;SDS011;54680;52.486;-1.890;2024-02-21T16:58:46;3.75;;;1.30;;
67880;SDS011;54680;52.486;-1.890;2024-02-21T17:07:06;4.63;;;1.30;;
67880;SDS011;54680;52.486;-1.890;2024-02-21T17:10:24;2.58;;;1.20;;
67880;SDS011;54680;52.486;-1.890;2024-02-21T17:12:50;4.32;;;1.50;;
67880;SDS011;54680;52.486;-1.890;2024-02-21T17:15:16;4.07;;;1.50;;
67880;SDS011;54680;52.486;-1.890;2024-02-21T17:17:44;6.85;;;2.50;;
67880;SDS011;54680;52.486;-1.890;2024-02-21T17:20:09;3.75;;;1.52;;
67880;SDS011;54680;52.486;-1.890;2024-02-21T17:22:37;4.70;;;1.73;;
67880;SDS011;54680;52.486;-1.890;2024-02-21T17:25:03;5.85;;;1.60;;
67880;SDS011;54680;52.486;-1.890;2024-02-21T17:28:17;4.25;;;1.50;;
67880;SDS011;54680;52.486;-1.890;2024-02-21T17:30:49;6.03;;;1.77;;
67880;SDS011;54680;52.486;-1.890;2024-02-21T17:33:34;2.80;;;1.85;;
67880;SDS011;54680;52.486;-1.890;2024-02-21T17:35:59;3.83;;;1.30;;
67880;SDS011;54680;52.486;-1.890;2024-02-21T17:38:25;6.85;;;1.55;;
67880;SDS011;54680;52.486;-1.890;2024-02-21T17:40:55;8.60;;;1.90;;
67880;SDS011;54680;52.486;-1.890;2024-02-21T17:43:21;5.05;;;1.60;;
67880;SDS011;54680;52.486;-1.890;2024-02-21T17:45:47;7.43;;;2.08;;
67880;SDS011;54680;52.486;-1.890;2024-02-21T17:48:13;9.52;;;2.45;;
67880;SDS011;54680;52.486;-1.890;2024-02-21T17:50:39;7.10;;;1.90;;
67880;SDS011;54680;52.486;-1.890;2024-02-21T17:53:05;3.60;;;1.40;;
67880;SDS011;54680;52.486;-1.890;2024-02-21T17:55:30;9.75;;;2.13;;
67880;SDS011;54680;52.486;-1.890;2024-02-21T17:57:56;5.00;;;1.70;;
67880;SDS011;54680;52.486;-1.890;2024-02-21T18:00:22;9.68;;;1.77;;
67880;SDS011;54680;52.486;-1.890;2024-02-21T18:02:47;6.70;;;2.15;;
67880;SDS011;54680;52.486;-1.890;2024-02-21T18:05:23;10.00;;;1.40;;
67880;SDS011;54680;52.486;-1.890;2024-02-21T18:07:51;8.02;;;1.65;;
67880;SDS011;54680;52.486;-1.890;2024-02-21T18:10:20;7.90;;;1.63;;
67880;SDS011;54680;52.486;-1.890;2024-02-21T18:12:56;8.68;;;2.05;;
67880;SDS011;54680;52.486;-1.890;2024-02-21T18:15:24;6.47;;;2.17;;
67880;SDS011;54680;52.486;-1.890;2024-02-21T18:17:50;3.95;;;1.52;;
67880;SDS011;54680;52.486;-1.890;2024-02-21T18:20:15;7.30;;;1.50;;
67880;SDS011;54680;52.486;-1.890;2024-02-21T18:22:41;5.43;;;1.73;;
67880;SDS011;54680;52.486;-1.890;2024-02-21T18:25:07;8.20;;;1.90;;
67880;SDS011;54680;52.486;-1.890;2024-02-21T18:27:34;14.77;;;1.98;;
67880;SDS011;54680;52.486;-1.890;2024-02-21T18:30:00;9.15;;;1.70;;
67880;SDS011;54680;52.486;-1.890;2024-02-21T18:32:28;7.82;;;1.63;;
67880;SDS011;54680;52.486;-1.890;2024-02-21T18:34:54;7.22;;;1.80;;
67880;SDS011;54680;52.486;-1.890;2024-02-21T18:37:20;8.50;;;1.92;;
67880;SDS011;54680;52.486;-1.890;2024-02-21T18:39:46;9.30;;;1.92;;
67880;SDS011;54680;52.486;-1.890;2024-02-21T18:42:15;4.78;;;2.00;;
67880;SDS011;54680;52.486;-1.890;2024-02-21T18:44:41;11.23;;;1.88;;
67880;SDS011;54680;52.486;-1.890;2024-02-21T18:47:25;9.23;;;2.30;;
67880;SDS011;54680;52.486;-1.890;2024-02-21T18:49:55;6.97;;;2.00;;
67880;SDS011;54680;52.486;-1.890;2024-02-21T18:52:28;5.95;;;1.90;;
67880;SDS011;54680;52.486;-1.890;2024-02-21T18:54:54;12.05;;;1.98;;
67880;SDS011;54680;52.486;-1.890;2024-02-21T18:57:22;11.30;;;2.28;;
67880;SDS011;54680;52.486;-1.890;2024-02-21T18:59:48;7.28;;;1.98;;
67880;SDS011;54680;52.486;-1.890;2024-02-21T19:02:20;7.53;;;1.85;;
67880;SDS011;54680;52.486;-1.890;2024-02-21T19:04:46;10.60;;;2.30;;
67880;SDS011;54680;52.486;-1.890;2024-02-21T19:07:11;11.93;;;2.78;;
67880;SDS011;54680;52.486;-1.890;2024-02-21T19:09:38;13.23;;;2.58;;
67880;SDS011;54680;52.486;-1.890;2024-02-21T19:12:05;8.10;;;2.17;;
67880;SDS011;54680;52.486;-1.890;2024-02-21T19:14:37;11.98;;;2.13;;
67880;SDS011;54680;52.486;-1.890;2024-02-21T19:17:03;7.22;;;2.38;;
67880;SDS011;54680;52.486;-1.890;2024-02-21T19:19:28;6.07;;;2.03;;
67880;SDS011;54680;52.486;-1.890;2024-02-21T19:21:54;13.55;;;2.28;;
67880;SDS011;54680;52.486;-1.890;2024-02-21T19:24:21;6.38;;;1.80;;
67880;SDS011;54680;52.486;-1.890;2024-02-21T19:26:46;10.40;;;2.10;;
67880;SDS011;54680;52.486;-1.890;2024-02-21T19:29:16;8.63;;;2.00;;
67880;SDS011;54680;52.486;-1.890;2024-02-21T19:31:42;6.68;;;1.90;;
67880;SDS011;54680;52.486;-1.890;2024-02-21T19:34:10;9.75;;;2.03;;
67880;SDS011;54680;52.486;-1.890;2024-02-21T19:36:36;12.18;;;2.40;;
67880;SDS011;54680;52.486;-1.890;2024-02-21T19:39:03;10.73;;;3.13;;
67880;SDS011;54680;52.486;-1.890;2024-02-21T19:41:46;13.18;;;2.20;;
67880;SDS011;54680;52.486;-1.890;2024-02-21T19:44:12;11.98;;;2.25;;
67880;SDS011;54680;52.486;-1.890;2024-02-21T19:46:37;17.65;;;2.60;;
67880;SDS011;54680;52.486;-1.890;2024-02-21T19:49:03;14.63;;;2.60;;
67880;SDS011;54680;52.486;-1.890;2024-02-21T19:51:29;18.08;;;2.90;;
67880;SDS011;54680;52.486;-1.890;2024-02-21T19:53:54;14.13;;;2.88;;
67880;SDS011;54680;52.486;-1.890;2024-02-21T19:56:20;14.98;;;2.97;;
67880;SDS011;54680;52.486;-1.890;2024-02-21T19:58:45;13.02;;;2.38;;
67880;SDS011;54680;52.486;-1.890;2024-02-21T20:01:12;11.75;;;2.67;;
67880;SDS011;54680;52.486;-1.890;2024-02-21T20:03:38;8.52;;;2.60;;
67880;SDS011;54680;52.486;-1.890;2024-02-21T20:06:04;21.42;;;3.75;;
67880;SDS011;54680;52.486;-1.890;2024-02-21T20:08:30;13.23;;;2.53;;
67880;SDS011;54680;52.486;-1.890;2024-02-21T20:10:56;16.58;;;3.97;;
67880;SDS011;54680;52.486;-1.890;2024-02-21T20:13:21;15.05;;;2.67;;
67880;SDS011;54680;52.486;-1.890;2024-02-21T20:15:47;18.55;;;3.25;;
67880;SDS011;54680;52.486;-1.890;2024-02-21T20:18:12;10.10;;;2.72;;
67880;SDS011;54680;52.486;-1.890;2024-02-21T20:20:38;15.38;;;2.60;;
67880;SDS011;54680;52.486;-1.890;2024-02-21T20:23:06;10.00;;;2.10;;
67880;SDS011;54680;52.486;-1.890;2024-02-21T20:25:38;10.68;;;2.40;;
67880;SDS011;54680;52.486;-1.890;2024-02-21T20:28:04;20.40;;;3.08;;
67880;SDS011;54680;52.486;-1.890;2024-02-21T20:30:30;17.42;;;3.17;;
67880;SDS011;54680;52.486;-1.890;2024-02-21T20:32:55;13.07;;;2.58;;
67880;SDS011;54680;52.486;-1.890;2024-02-21T20:35:21;13.75;;;3.10;;
67880;SDS011;54680;52.486;-1.890;2024-02-21T20:37:49;11.70;;;2.78;;
67880;SDS011;54680;52.486;-1.890;2024-02-21T20:40:15;14.55;;;2.83;;
67880;SDS011;54680;52.486;-1.890;2024-02-21T20:42:41;14.20;;;3.05;;
67880;SDS011;54680;52.486;-1.890;2024-02-21T20:45:06;10.85;;;2.40;;
67880;SDS011;54680;52.486;-1.890;2024-02-21T20:47:32;13.52;;;2.40;;
67880;SDS011;54680;52.486;-1.890;2024-02-21T20:49:57;14.15;;;2.65;;
67880;SDS011;54680;52.486;-1.890;2024-02-21T20:52:23;8.95;;;3.25;;
67880;SDS011;54680;52.486;-1.890;2024-02-21T20:54:49;10.70;;;2.70;;
67880;SDS011;54680;52.486;-1.890;2024-02-21T20:57:15;9.45;;;2.70;;
67880;SDS011;54680;52.486;-1.890;2024-02-21T20:59:40;11.65;;;2.60;;
67880;SDS011;54680;52.486;-1.890;2024-02-21T21:02:06;16.25;;;4.05;;
67880;SDS011;54680;52.486;-1.890;2024-02-21T21:04:31;15.43;;;3.03;;
67880;SDS011;54680;52.486;-1.890;2024-02-21T21:06:57;16.83;;;2.85;;
67880;SDS011;54680;52.486;-1.890;2024-02-21T21:09:22;14.50;;;2.50;;
67880;SDS011;54680;52.486;-1.890;2024-02-21T21:11:48;17.80;;;3.80;;
67880;SDS011;54680;52.486;-1.890;2024-02-21T21:14:15;12.23;;;2.33;;
67880;SDS011;54680;52.486;-1.890;2024-02-21T21:16:40;17.60;;;2.85;;
67880;SDS011;54680;52.486;-1.890;2024-02-21T21:19:06;7.78;;;2.25;;
67880;SDS011;54680;52.486;-1.890;2024-02-21T21:21:31;19.25;;;3.10;;
67880;SDS011;54680;52.486;-1.890;2024-02-21T21:23:57;15.73;;;2.70;;
67880;SDS011;54680;52.486;-1.890;2024-02-21T21:26:22;21.33;;;2.83;;
67880;SDS011;54680;52.486;-1.890;2024-02-21T21:28:48;18.40;;;2.80;;
67880;SDS011;54680;52.486;-1.890;2024-02-21T21:31:13;14.95;;;3.30;;
67880;SDS011;54680;52.486;-1.890;2024-02-21T21:33:40;19.10;;;2.90;;
67880;SDS011;54680;52.486;-1.890;2024-02-21T21:36:05;16.13;;;2.88;;
67880;SDS011;54680;52.486;-1.890;2024-02-21T21:38:32;17.65;;;3.00;;
67880;SDS011;54680;52.486;-1.890;2024-02-21T21:40:59;14.27;;;2.72;;
67880;SDS011;54680;52.486;-1.890;2024-02-21T21:43:24;14.60;;;2.75;;
67880;SDS011;54680;52.486;-1.890;2024-02-21T21:45:50;23.58;;;3.50;;
67880;SDS011;54680;52.486;-1.890;2024-02-21T21:48:15;17.20;;;2.72;;
67880;SDS011;54680;52.486;-1.890;2024-02-21T21:50:41;13.77;;;2.75;;
67880;SDS011;54680;52.486;-1.890;2024-02-21T21:53:07;18.05;;;2.63;;
67880;SDS011;54680;52.486;-1.890;2024-02-21T21:55:32;23.63;;;2.90;;
67880;SDS011;54680;52.486;-1.890;2024-02-21T21:57:58;19.73;;;3.22;;
67880;SDS011;54680;52.486;-1.890;2024-02-21T22:00:23;22.10;;;3.80;;
67880;SDS011;54680;52.486;-1.890;2024-02-21T22:02:49;30.38;;;3.92;;
67880;SDS011;54680;52.486;-1.890;2024-02-21T22:05:15;17.58;;;3.13;;
67880;SDS011;54680;52.486;-1.890;2024-02-21T22:07:40;22.70;;;3.92;;
67880;SDS011;54680;52.486;-1.890;2024-02-21T22:10:06;22.10;;;3.55;;
67880;SDS011;54680;52.486;-1.890;2024-02-21T22:12:32;12.10;;;3.22;;
67880;SDS011;54680;52.486;-1.890;2024-02-21T22:14:58;16.33;;;2.85;;
67880;SDS011;54680;52.486;-1.890;2024-02-21T22:17:23;16.40;;;3.20;;
67880;SDS011;54680;52.486;-1.890;2024-02-21T22:19:49;19.17;;;3.58;;
67880;SDS011;54680;52.486;-1.890;2024-02-21T22:22:14;18.10;;;3.00;;
67880;SDS011;54680;52.486;-1.890;2024-02-21T22:24:40;15.00;;;2.75;;
67880;SDS011;54680;52.486;-1.890;2024-02-21T22:27:09;15.18;;;3.08;;
67880;SDS011;54680;52.486;-1.890;2024-02-21T22:29:37;18.00;;;3.20;;
67880;SDS011;54680;52.486;-1.890;2024-02-21T22:32:03;29.77;;;4.45;;
67880;SDS011;54680;52.486;-1.890;2024-02-21T22:34:30;13.77;;;2.60;;
67880;SDS011;54680;52.486;-1.890;2024-02-21T22:36:56;15.27;;;2.83;;
67880;SDS011;54680;52.486;-1.890;2024-02-21T22:39:22;20.98;;;3.58;;
67880;SDS011;54680;52.486;-1.890;2024-02-21T22:41:49;25.25;;;3.58;;
67880;SDS011;54680;52.486;-1.890;2024-02-21T22:44:14;23.42;;;4.18;;
67880;SDS011;54680;52.486;-1.890;2024-02-21T22:46:40;19.92;;;3.53;;
67880;SDS011;54680;52.486;-1.890;2024-02-21T22:49:05;16.10;;;2.97;;
67880;SDS011;54680;52.486;-1.890;2024-02-21T22:51:31;19.77;;;3.08;;
67880;SDS011;54680;52.486;-1.890;2024-02-21T22:53:57;23.58;;;3.47;;
67880;SDS011;54680;52.486;-1.890;2024-02-21T22:56:23;27.92;;;3.60;;
67880;SDS011;54680;52.486;-1.890;2024-02-21T22:58:49;23.10;;;3.38;;
67880;SDS011;54680;52.486;-1.890;2024-02-21T23:01:16;17.40;;;3.75;;
67880;SDS011;54680;52.486;-1.890;2024-02-21T23:03:44;19.90;;;3.20;;
67880;SDS011;54680;52.486;-1.890;2024-02-21T23:06:09;21.52;;;4.32;;
67880;SDS011;54680;52.486;-1.890;2024-02-21T23:08:35;24.10;;;2.78;;
67880;SDS011;54680;52.486;-1.890;2024-02-21T23:11:01;23.60;;;4.38;;
67880;SDS011;54680;52.486;-1.890;2024-02-21T23:13:29;16.70;;;3.15;;
67880;SDS011;54680;52.486;-1.890;2024-02-21T23:15:54;18.52;;;3.15;;
67880;SDS011;54680;52.486;-1.890;2024-02-21T23:18:20;16.98;;;2.63;;
67880;SDS011;54680;52.486;-1.890;2024-02-21T23:20:45;30.75;;;3.88;;
67880;SDS011;54680;52.486;-1.890;2024-02-21T23:23:15;22.40;;;2.97;;
67880;SDS011;54680;52.486;-1.890;2024-02-21T23:25:42;15.93;;;2.60;;
67880;SDS011;54680;52.486;-1.890;2024-02-21T23:28:09;20.10;;;3.15;;
67880;SDS011;54680;52.486;-1.890;2024-02-21T23:30:34;16.35;;;3.03;;
67880;SDS011;54680;52.486;-1.890;2024-02-21T23:32:59;21.63;;;3.03;;
67880;SDS011;54680;52.486;-1.890;2024-02-21T23:35:25;26.42;;;3.85;;
67880;SDS011;54680;52.486;-1.890;2024-02-21T23:37:50;24.23;;;4.35;;
67880;SDS011;54680;52.486;-1.890;2024-02-21T23:40:17;28.15;;;3.17;;
67880;SDS011;54680;52.486;-1.890;2024-02-21T23:42:43;29.85;;;3.45;;
67880;SDS011;54680;52.486;-1.890;2024-02-21T23:45:09;21.65;;;3.30;;
67880;SDS011;54680;52.486;-1.890;2024-02-21T23:47:36;13.35;;;3.13;;
67880;SDS011;54680;52.486;-1.890;2024-02-21T23:50:02;14.93;;;2.88;;
67880;SDS011;54680;52.486;-1.890;2024-02-21T23:52:28;17.52;;;3.40;;
67880;SDS011;54680;52.486;-1.890;2024-02-21T23:54:54;17.35;;;3.22;;
67880;SDS011;54680;52.486;-1.890;2024-02-21T23:57:21;18.63;;;3.15;;
67880;SDS011;54680;52.486;-1.890;2024-02-21T23:59:48;19.60;;;3.35;;
